createdAt,value
2019-03-28T10:57:29.889Z,5.12
2019-03-28T11:04:53.586Z,8.28
2019-03-28T11:07:23.362Z,7.17
2019-03-28T11:09:53.101Z,7.60
2019-03-28T11:12:22.849Z,10.40
2019-03-28T11:14:52.562Z,10.78
2019-03-28T11:17:22.294Z,7.60
2019-03-28T11:19:52.063Z,8.00
2019-03-28T11:22:21.796Z,9.10
2019-03-28T11:24:51.540Z,9.90
2019-03-28T11:27:21.303Z,10.60
2019-03-28T11:29:51.041Z,18.32
2019-03-28T11:32:20.832Z,14.83
2019-03-28T11:34:50.554Z,8.57
2019-03-28T11:37:26.357Z,10.10
2019-03-28T11:39:51.678Z,10.85
2019-03-28T11:42:21.423Z,10.53
2019-03-28T11:44:51.174Z,8.43
2019-03-28T11:47:22.398Z,8.10
2019-03-28T11:49:52.331Z,7.85
2019-03-28T11:52:22.069Z,10.90
2019-03-28T11:54:51.853Z,11.63
2019-03-28T11:57:22.448Z,12.23
2019-03-28T11:59:52.221Z,11.75
2019-03-28T12:02:25.142Z,11.50
2019-03-28T12:04:53.474Z,11.43
2019-03-28T12:07:23.247Z,12.65
2019-03-28T12:09:53.018Z,12.93
2019-03-28T12:12:22.754Z,12.82
2019-03-28T12:14:52.505Z,12.63
2019-03-28T12:17:22.248Z,12.20
2019-03-28T12:19:51.978Z,11.75
2019-03-28T12:22:21.770Z,13.43
2019-03-28T12:24:51.502Z,13.80
2019-03-28T12:27:21.287Z,13.88
2019-03-28T12:29:51.027Z,14.38
2019-03-28T12:32:20.774Z,12.23
2019-03-28T12:34:50.524Z,12.78
2019-03-28T12:37:20.257Z,13.22
2019-03-28T12:39:50.060Z,11.43
2019-03-28T12:42:19.887Z,11.40
2019-03-28T12:44:57.034Z,11.05
2019-03-28T12:47:21.014Z,15.03
2019-03-28T12:49:50.798Z,14.90
2019-03-28T12:52:20.538Z,13.65
2019-03-28T12:54:50.349Z,11.05
2019-03-28T12:57:20.066Z,11.38
2019-03-28T12:59:49.744Z,14.60
2019-03-28T13:02:29.961Z,16.95
2019-03-28T13:04:50.838Z,19.15
2019-03-28T13:07:20.622Z,13.25
2019-03-28T13:09:50.357Z,21.50
2019-03-28T13:12:20.147Z,12.33
2019-03-28T13:14:50.194Z,7.95
2019-03-28T13:17:19.962Z,6.70
2019-03-28T13:19:49.691Z,8.10
2019-03-28T13:22:19.430Z,7.97
2019-03-28T13:24:49.160Z,9.23
2019-03-28T13:27:18.934Z,8.03
2019-03-28T13:29:48.674Z,9.18
2019-03-28T13:32:18.505Z,9.25
2019-03-28T13:34:48.171Z,9.35
2019-03-28T13:37:17.906Z,9.40
2019-03-28T13:39:47.684Z,8.68
2019-03-28T13:42:17.419Z,7.90
2019-03-28T13:44:47.202Z,7.83
2019-03-28T13:47:16.939Z,7.80
2019-03-28T13:49:46.747Z,9.48
2019-03-28T13:52:16.424Z,9.33
2019-03-28T13:54:46.155Z,9.50
2019-03-28T13:57:15.949Z,10.43
2019-03-28T13:59:45.782Z,10.32
2019-03-28T14:02:15.523Z,9.40
2019-03-28T14:04:45.249Z,9.35
2019-03-28T14:07:17.286Z,8.43
2019-03-28T14:09:46.522Z,10.20
2019-03-28T14:12:16.246Z,8.83
2019-03-28T14:14:46.021Z,10.37
2019-03-28T14:17:15.754Z,10.53
2019-03-28T14:19:45.490Z,10.77
2019-03-28T14:22:18.044Z,10.37
2019-03-28T14:24:46.586Z,10.08
2019-03-28T14:27:16.430Z,11.53
2019-03-28T14:29:46.162Z,25.88
2019-03-28T14:32:15.934Z,18.35
2019-03-28T14:34:45.667Z,12.13
2019-03-28T14:37:17.129Z,10.57
2019-03-28T14:39:49.202Z,11.53
2019-03-28T14:42:19.858Z,11.68
2019-03-28T14:44:49.838Z,12.15
2019-03-28T14:47:19.645Z,13.50
2019-03-28T14:49:49.396Z,11.78
2019-03-28T14:52:19.147Z,11.75
2019-03-28T14:54:48.893Z,12.40
2019-03-28T14:57:19.700Z,10.88
2019-03-28T14:59:50.638Z,12.00
2019-03-28T15:02:20.438Z,11.73
2019-03-28T15:04:50.184Z,11.70
2019-03-28T15:07:19.968Z,13.00
2019-03-28T15:09:49.719Z,13.65
2019-03-28T15:12:19.471Z,15.83
2019-03-28T15:14:49.225Z,14.50
2019-03-28T15:17:19.015Z,17.60
2019-03-28T15:19:48.754Z,17.73
2019-03-28T15:22:18.503Z,28.85
2019-03-28T15:24:48.242Z,18.57
2019-03-28T15:27:17.989Z,20.15
2019-03-28T15:29:47.881Z,36.48
2019-03-28T15:32:17.627Z,23.98
2019-03-28T15:34:47.367Z,46.60
2019-03-28T15:37:17.106Z,63.25
2019-03-28T15:39:46.891Z,82.70
2019-03-28T15:42:21.794Z,50.23
2019-03-28T15:44:51.730Z,94.05
2019-03-28T15:47:21.485Z,146.90
2019-03-28T15:49:51.249Z,72.92
2019-03-28T15:52:21.014Z,71.17
2019-03-28T15:54:50.752Z,33.60
2019-03-28T15:57:20.504Z,38.90
2019-03-28T15:59:50.314Z,39.87
2019-03-28T16:02:20.197Z,30.35
2019-03-28T16:04:50.936Z,30.13
2019-03-28T16:07:20.711Z,42.20
2019-03-28T16:09:50.448Z,88.12
2019-03-28T16:12:20.217Z,58.33
2019-03-28T16:14:49.957Z,41.08
2019-03-28T16:17:19.707Z,21.90
2019-03-28T16:19:49.450Z,30.43
2019-03-28T16:22:20.480Z,29.55
2019-03-28T16:24:50.361Z,34.65
2019-03-28T16:27:20.198Z,58.52
2019-03-28T16:29:49.972Z,51.53
2019-03-28T16:32:19.718Z,66.65
2019-03-28T16:34:50.591Z,30.30
2019-03-28T16:37:20.325Z,24.18
2019-03-28T16:39:50.246Z,27.37
2019-03-28T16:42:19.962Z,32.17
2019-03-28T16:44:49.698Z,51.02
2019-03-28T16:47:19.455Z,51.15
2019-03-28T16:49:49.218Z,98.95
2019-03-28T16:52:18.968Z,68.52
2019-03-28T16:54:48.706Z,59.80
2019-03-28T16:57:18.480Z,85.28
2019-03-28T16:59:48.882Z,99.58
2019-03-28T17:02:21.685Z,97.13
2019-03-28T17:04:51.426Z,119.50
2019-03-28T17:07:21.598Z,110.95
2019-03-28T17:09:51.554Z,103.17
2019-03-28T17:12:21.348Z,91.70
2019-03-28T17:14:51.710Z,75.87
2019-03-28T17:17:21.662Z,48.63
2019-03-28T17:19:52.506Z,44.65
2019-03-28T17:22:22.274Z,50.45
2019-03-28T17:24:52.031Z,47.50
2019-03-28T17:27:21.783Z,52.17
2019-03-28T17:29:51.518Z,56.10
2019-03-28T17:32:21.252Z,54.15
2019-03-28T17:34:52.031Z,59.42
2019-03-28T17:37:21.750Z,60.05
2019-03-28T17:39:51.493Z,62.73
2019-03-28T17:42:21.243Z,66.42
2019-03-28T17:44:51.023Z,106.97
2019-03-28T17:47:20.755Z,95.75
2019-03-28T17:49:51.182Z,77.20
2019-03-28T17:52:21.601Z,64.12
2019-03-28T17:54:51.330Z,62.43
2019-03-28T17:57:21.106Z,43.15
2019-03-28T17:59:50.827Z,46.33
2019-03-28T18:02:20.570Z,45.40
2019-03-28T18:04:50.329Z,41.55
2019-03-28T18:07:20.338Z,38.10
2019-03-28T18:09:50.119Z,32.90
2019-03-28T18:12:19.946Z,30.75
2019-03-28T18:14:49.862Z,31.00
2019-03-28T18:17:19.644Z,30.37
2019-03-28T18:19:49.382Z,28.80
2019-03-28T18:22:19.172Z,27.15
2019-03-28T18:24:48.899Z,24.67
2019-03-28T18:27:18.648Z,29.72
2019-03-28T18:29:48.368Z,24.35
2019-03-28T18:32:18.802Z,26.73
2019-03-28T18:34:59.408Z,24.35
2019-03-28T18:37:20.275Z,21.23
2019-03-28T18:39:50.004Z,18.92
2019-03-28T18:42:19.738Z,18.87
2019-03-28T18:44:49.474Z,18.50
2019-03-28T18:47:19.225Z,20.20
2019-03-28T18:49:48.978Z,17.95
2019-03-28T18:52:18.714Z,17.42
2019-03-28T18:54:48.458Z,18.40
2019-03-28T18:57:19.885Z,16.50
2019-03-28T18:59:49.817Z,15.80
2019-03-28T19:02:19.926Z,15.03
2019-03-28T19:04:49.658Z,15.67
2019-03-28T19:07:19.391Z,16.30
2019-03-28T19:09:49.121Z,15.48
2019-03-28T19:12:18.858Z,15.88
2019-03-28T19:14:48.642Z,15.85
2019-03-28T19:17:18.384Z,21.55
2019-03-28T19:19:48.171Z,20.85
2019-03-28T19:22:17.916Z,17.17
2019-03-28T19:24:47.793Z,17.60
2019-03-28T19:27:18.730Z,17.82
2019-03-28T19:29:48.696Z,16.83
2019-03-28T19:32:18.463Z,18.23
2019-03-28T19:34:48.198Z,16.60
2019-03-28T19:37:18.491Z,22.13
2019-03-28T19:39:48.220Z,34.03
2019-03-28T19:42:18.068Z,36.05
2019-03-28T19:44:48.337Z,29.18
2019-03-28T19:47:18.123Z,33.37
2019-03-28T19:49:47.844Z,27.35
2019-03-28T19:52:17.583Z,26.80
2019-03-28T19:54:47.324Z,27.80
2019-03-28T19:57:17.094Z,26.73
2019-03-28T19:59:46.875Z,26.02
2019-03-28T20:02:17.418Z,23.57
2019-03-28T20:04:47.198Z,26.70
2019-03-28T20:07:21.991Z,25.15
2019-03-28T20:09:48.354Z,23.70
2019-03-28T20:12:18.116Z,25.92
2019-03-28T20:14:47.920Z,24.85
2019-03-28T20:17:17.854Z,29.80
2019-03-28T20:19:47.827Z,25.77
2019-03-28T20:22:17.572Z,27.27
2019-03-28T20:24:47.313Z,27.00
2019-03-28T20:27:17.068Z,25.25
2019-03-28T20:29:47.099Z,32.35
2019-03-28T20:32:16.880Z,32.03
2019-03-28T20:34:49.084Z,30.85
2019-03-28T20:37:19.124Z,31.65
2019-03-28T20:39:48.864Z,32.90
2019-03-28T20:42:18.601Z,27.73
2019-03-28T20:44:48.343Z,29.77
2019-03-28T20:47:18.095Z,28.47
2019-03-28T20:49:47.971Z,26.55
2019-03-28T20:52:19.196Z,32.40
2019-03-28T20:54:49.278Z,36.33
2019-03-28T20:57:19.001Z,35.30
2019-03-28T20:59:48.764Z,38.33
2019-03-28T21:02:18.507Z,34.88
2019-03-28T21:04:48.250Z,31.07
2019-03-28T21:07:20.351Z,32.48
2019-03-28T21:09:50.084Z,30.20
2019-03-28T21:12:19.851Z,30.27
2019-03-28T21:14:49.587Z,32.83
2019-03-28T21:17:19.344Z,28.98
2019-03-28T21:19:49.108Z,28.70
2019-03-28T21:22:18.890Z,28.65
2019-03-28T21:24:48.724Z,30.23
2019-03-28T21:27:20.724Z,29.27
2019-03-28T21:29:51.045Z,28.90
2019-03-28T21:32:20.991Z,27.90
2019-03-28T21:34:50.771Z,28.33
2019-03-28T21:37:20.503Z,29.10
2019-03-28T21:39:50.294Z,28.83
2019-03-28T21:42:20.025Z,30.90
2019-03-28T21:44:49.774Z,28.65
2019-03-28T21:47:19.511Z,26.57
2019-03-28T21:49:49.251Z,31.05
2019-03-28T21:52:24.778Z,40.60
2019-03-28T21:54:54.558Z,34.67
2019-03-28T21:57:24.309Z,36.68
2019-03-28T21:59:54.077Z,32.15
2019-03-28T22:02:24.204Z,36.65
2019-03-28T22:04:54.681Z,38.60
2019-03-28T22:07:24.442Z,32.60
2019-03-28T22:09:54.323Z,31.27
2019-03-28T22:12:24.062Z,29.65
2019-03-28T22:14:53.849Z,37.05
2019-03-28T22:17:26.766Z,34.58
2019-03-28T22:19:54.974Z,28.73
2019-03-28T22:22:24.710Z,31.23
2019-03-28T22:24:54.460Z,28.40
2019-03-28T22:27:24.212Z,30.43
2019-03-28T22:29:54.322Z,30.25
2019-03-28T22:32:24.337Z,77.05
2019-03-28T22:34:54.132Z,97.67
2019-03-28T22:37:23.909Z,121.67
2019-03-28T22:39:53.649Z,153.00
2019-03-28T22:42:23.406Z,147.60
2019-03-28T22:44:53.151Z,104.07
2019-03-28T22:47:22.885Z,82.62
2019-03-28T22:49:52.685Z,136.27
2019-03-28T22:52:22.425Z,110.70
2019-03-28T22:54:52.197Z,108.15
2019-03-28T22:57:21.938Z,135.20
2019-03-28T22:59:52.225Z,162.22
2019-03-28T23:02:22.749Z,148.80
2019-03-28T23:04:52.490Z,146.55
2019-03-28T23:07:22.274Z,156.00
2019-03-28T23:09:52.010Z,143.80
2019-03-28T23:12:21.754Z,149.05
2019-03-28T23:14:51.502Z,132.32
2019-03-28T23:17:21.294Z,139.95
2019-03-28T23:19:51.049Z,127.42
2019-03-28T23:22:20.838Z,124.53
2019-03-28T23:24:50.578Z,125.75
2019-03-28T23:27:20.342Z,125.65
2019-03-28T23:29:50.102Z,116.62
2019-03-28T23:32:19.877Z,117.65
2019-03-28T23:34:49.654Z,117.53
2019-03-28T23:37:24.726Z,117.10
2019-03-28T23:39:50.785Z,106.47
2019-03-28T23:42:20.515Z,122.28
2019-03-28T23:44:50.311Z,118.30
2019-03-28T23:47:20.345Z,112.85
2019-03-28T23:49:50.117Z,111.20
2019-03-28T23:52:19.862Z,109.57
2019-03-28T23:54:49.610Z,111.10
2019-03-28T23:57:19.348Z,107.45
2019-03-28T23:59:49.111Z,104.95
